sensor_id;sensor_type;location;lat;lon;timestamp;P1;durP1;ratioP1;P2;durP2;ratioP2
2712;SDS011;1366;47.988;7.856;2022-10-19T04:00:24;9.17;;;8.27;;
2712;SDS011;1366;47.988;7.856;2022-10-19T04:02:50;8.47;;;7.77;;
2712;SDS011;1366;47.988;7.856;2022-10-19T04:05:16;8.70;;;7.90;;
2712;SDS011;1366;47.988;7.856;2022-10-19T04:07:42;12.27;;;8.60;;
2712;SDS011;1366;47.988;7.856;2022-10-19T04:10:08;10.17;;;7.60;;
2712;SDS011;1366;47.988;7.856;2022-10-19T04:12:34;9.50;;;7.93;;
2712;SDS011;1366;47.988;7.856;2022-10-19T04:15:01;9.10;;;7.80;;
2712;SDS011;1366;47.988;7.856;2022-10-19T04:17:27;10.47;;;7.70;;
2712;SDS011;1366;47.988;7.856;2022-10-19T04:19:53;9.27;;;7.97;;
2712;SDS011;1366;47.988;7.856;2022-10-19T04:22:19;8.67;;;7.73;;
2712;SDS011;1366;47.988;7.856;2022-10-19T04:24:45;7.50;;;6.73;;
2712;SDS011;1366;47.988;7.856;2022-10-19T04:27:11;9.57;;;8.10;;
2712;SDS011;1366;47.988;7.856;2022-10-19T04:29:37;8.23;;;7.43;;
2712;SDS011;1366;47.988;7.856;2022-10-19T04:32:03;7.83;;;6.97;;
2712;SDS011;1366;47.988;7.856;2022-10-19T04:34:29;8.47;;;7.70;;
2712;SDS011;1366;47.988;7.856;2022-10-19T04:36:55;10.17;;;7.80;;
2712;SDS011;1366;47.988;7.856;2022-10-19T04:39:23;7.70;;;6.93;;
2712;SDS011;1366;47.988;7.856;2022-10-19T04:41:49;7.10;;;6.50;;
2712;SDS011;1366;47.988;7.856;2022-10-19T04:44:15;8.13;;;7.30;;
2712;SDS011;1366;47.988;7.856;2022-10-19T04:46:41;7.90;;;7.20;;
2712;SDS011;1366;47.988;7.856;2022-10-19T04:49:07;8.30;;;7.20;;
2712;SDS011;1366;47.988;7.856;2022-10-19T04:51:33;7.67;;;6.93;;
2712;SDS011;1366;47.988;7.856;2022-10-19T04:54:00;9.87;;;8.27;;
2712;SDS011;1366;47.988;7.856;2022-10-19T04:56:26;7.93;;;7.07;;
2712;SDS011;1366;47.988;7.856;2022-10-19T04:58:55;10.70;;;7.00;;
2712;SDS011;1366;47.988;7.856;2022-10-19T05:01:21;7.40;;;6.70;;
2712;SDS011;1366;47.988;7.856;2022-10-19T05:03:51;9.13;;;6.80;;
2712;SDS011;1366;47.988;7.856;2022-10-19T05:06:18;9.23;;;7.67;;
2712;SDS011;1366;47.988;7.856;2022-10-19T05:08:44;6.87;;;6.23;;
2712;SDS011;1366;47.988;7.856;2022-10-19T05:11:11;9.33;;;6.77;;
2712;SDS011;1366;47.988;7.856;2022-10-19T05:13:38;7.70;;;6.83;;
2712;SDS011;1366;47.988;7.856;2022-10-19T05:16:05;8.70;;;6.97;;
2712;SDS011;1366;47.988;7.856;2022-10-19T05:18:32;8.20;;;7.40;;
2712;SDS011;1366;47.988;7.856;2022-10-19T05:21:02;8.97;;;8.07;;
2712;SDS011;1366;47.988;7.856;2022-10-19T05:23:28;11.43;;;6.97;;
2712;SDS011;1366;47.988;7.856;2022-10-19T05:26:01;9.73;;;7.60;;
2712;SDS011;1366;47.988;7.856;2022-10-19T05:28:28;12.23;;;7.33;;
2712;SDS011;1366;47.988;7.856;2022-10-19T05:30:54;7.67;;;6.97;;
2712;SDS011;1366;47.988;7.856;2022-10-19T05:33:20;15.70;;;7.13;;
2712;SDS011;1366;47.988;7.856;2022-10-19T05:35:46;7.67;;;6.87;;
2712;SDS011;1366;47.988;7.856;2022-10-19T05:38:12;8.00;;;7.20;;
2712;SDS011;1366;47.988;7.856;2022-10-19T05:40:43;8.00;;;7.23;;
2712;SDS011;1366;47.988;7.856;2022-10-19T05:43:09;10.90;;;6.80;;
2712;SDS011;1366;47.988;7.856;2022-10-19T05:45:35;7.20;;;6.60;;
2712;SDS011;1366;47.988;7.856;2022-10-19T05:48:01;6.97;;;6.37;;
2712;SDS011;1366;47.988;7.856;2022-10-19T05:50:27;6.70;;;6.10;;
2712;SDS011;1366;47.988;7.856;2022-10-19T05:52:53;7.23;;;6.57;;
2712;SDS011;1366;47.988;7.856;2022-10-19T05:55:19;8.57;;;7.30;;
2712;SDS011;1366;47.988;7.856;2022-10-19T05:57:45;7.50;;;6.80;;
2712;SDS011;1366;47.988;7.856;2022-10-19T06:00:11;7.60;;;6.80;;
2712;SDS011;1366;47.988;7.856;2022-10-19T06:02:37;7.47;;;6.70;;
2712;SDS011;1366;47.988;7.856;2022-10-19T06:05:03;7.87;;;6.50;;
2712;SDS011;1366;47.988;7.856;2022-10-19T06:07:29;8.40;;;7.60;;
2712;SDS011;1366;47.988;7.856;2022-10-19T06:09:55;9.90;;;8.10;;
2712;SDS011;1366;47.988;7.856;2022-10-19T06:12:21;7.67;;;6.23;;
2712;SDS011;1366;47.988;7.856;2022-10-19T06:14:50;7.47;;;6.77;;
2712;SDS011;1366;47.988;7.856;2022-10-19T06:17:16;9.37;;;7.33;;
2712;SDS011;1366;47.988;7.856;2022-10-19T06:19:43;7.60;;;6.90;;
2712;SDS011;1366;47.988;7.856;2022-10-19T06:22:09;7.80;;;7.00;;
2712;SDS011;1366;47.988;7.856;2022-10-19T06:24:35;9.00;;;7.13;;
2712;SDS011;1366;47.988;7.856;2022-10-19T06:27:01;9.13;;;7.87;;
2712;SDS011;1366;47.988;7.856;2022-10-19T06:29:27;7.63;;;6.93;;
2712;SDS011;1366;47.988;7.856;2022-10-19T06:31:53;9.33;;;7.70;;
2712;SDS011;1366;47.988;7.856;2022-10-19T06:34:20;8.33;;;7.53;;
2712;SDS011;1366;47.988;7.856;2022-10-19T06:36:46;10.63;;;7.57;;
2712;SDS011;1366;47.988;7.856;2022-10-19T06:39:12;8.63;;;7.70;;
2712;SDS011;1366;47.988;7.856;2022-10-19T06:41:38;8.43;;;7.33;;
2712;SDS011;1366;47.988;7.856;2022-10-19T06:44:04;8.53;;;7.60;;
2712;SDS011;1366;47.988;7.856;2022-10-19T06:46:30;7.83;;;7.03;;
2712;SDS011;1366;47.988;7.856;2022-10-19T06:48:57;10.70;;;7.73;;
2712;SDS011;1366;47.988;7.856;2022-10-19T06:51:24;8.83;;;7.37;;
2712;SDS011;1366;47.988;7.856;2022-10-19T06:53:51;7.90;;;7.20;;
2712;SDS011;1366;47.988;7.856;2022-10-19T06:56:17;10.40;;;8.90;;
2712;SDS011;1366;47.988;7.856;2022-10-19T06:58:43;9.90;;;7.60;;
2712;SDS011;1366;47.988;7.856;2022-10-19T07:01:09;8.30;;;7.10;;
2712;SDS011;1366;47.988;7.856;2022-10-19T07:03:37;9.60;;;7.47;;
2712;SDS011;1366;47.988;7.856;2022-10-19T07:06:04;10.13;;;8.60;;
2712;SDS011;1366;47.988;7.856;2022-10-19T07:08:31;15.77;;;9.20;;
2712;SDS011;1366;47.988;7.856;2022-10-19T07:10:58;10.13;;;8.37;;
2712;SDS011;1366;47.988;7.856;2022-10-19T07:13:25;10.90;;;8.10;;
2712;SDS011;1366;47.988;7.856;2022-10-19T07:15:56;9.43;;;8.30;;
2712;SDS011;1366;47.988;7.856;2022-10-19T07:18:22;10.00;;;7.90;;
2712;SDS011;1366;47.988;7.856;2022-10-19T07:20:58;11.20;;;8.20;;
2712;SDS011;1366;47.988;7.856;2022-10-19T07:23:25;9.20;;;8.30;;
2712;SDS011;1366;47.988;7.856;2022-10-19T07:25:51;10.63;;;7.87;;
2712;SDS011;1366;47.988;7.856;2022-10-19T07:28:19;11.23;;;8.70;;
2712;SDS011;1366;47.988;7.856;2022-10-19T07:30:46;11.37;;;8.70;;
2712;SDS011;1366;47.988;7.856;2022-10-19T07:33:12;10.50;;;8.80;;
2712;SDS011;1366;47.988;7.856;2022-10-19T07:35:38;10.33;;;9.13;;
2712;SDS011;1366;47.988;7.856;2022-10-19T07:38:04;16.63;;;11.27;;
2712;SDS011;1366;47.988;7.856;2022-10-19T07:40:30;11.90;;;10.70;;
2712;SDS011;1366;47.988;7.856;2022-10-19T07:42:56;13.40;;;10.20;;
2712;SDS011;1366;47.988;7.856;2022-10-19T07:45:22;13.30;;;10.23;;
2712;SDS011;1366;47.988;7.856;2022-10-19T07:47:48;13.73;;;9.27;;
2712;SDS011;1366;47.988;7.856;2022-10-19T07:50:14;11.60;;;9.30;;
2712;SDS011;1366;47.988;7.856;2022-10-19T07:52:40;11.57;;;10.07;;
2712;SDS011;1366;47.988;7.856;2022-10-19T07:55:06;9.70;;;8.50;;
2712;SDS011;1366;47.988;7.856;2022-10-19T07:57:32;9.27;;;8.37;;
2712;SDS011;1366;47.988;7.856;2022-10-19T07:59:58;10.80;;;8.77;;
2712;SDS011;1366;47.988;7.856;2022-10-19T08:02:24;10.63;;;8.67;;
2712;SDS011;1366;47.988;7.856;2022-10-19T08:04:50;11.10;;;9.53;;
2712;SDS011;1366;47.988;7.856;2022-10-19T08:07:16;9.30;;;8.40;;
2712;SDS011;1366;47.988;7.856;2022-10-19T08:09:42;12.47;;;8.67;;
2712;SDS011;1366;47.988;7.856;2022-10-19T08:12:08;10.10;;;8.40;;
2712;SDS011;1366;47.988;7.856;2022-10-19T08:14:34;11.23;;;8.20;;
2712;SDS011;1366;47.988;7.856;2022-10-19T08:17:00;8.77;;;7.87;;
2712;SDS011;1366;47.988;7.856;2022-10-19T08:19:27;8.20;;;7.40;;
2712;SDS011;1366;47.988;7.856;2022-10-19T08:21:53;8.80;;;7.93;;
2712;SDS011;1366;47.988;7.856;2022-10-19T08:24:19;10.07;;;7.93;;
2712;SDS011;1366;47.988;7.856;2022-10-19T08:26:46;8.90;;;7.73;;
2712;SDS011;1366;47.988;7.856;2022-10-19T08:29:16;9.20;;;8.30;;
2712;SDS011;1366;47.988;7.856;2022-10-19T08:31:42;9.30;;;8.30;;
2712;SDS011;1366;47.988;7.856;2022-10-19T08:34:09;8.93;;;8.13;;
2712;SDS011;1366;47.988;7.856;2022-10-19T08:36:35;9.63;;;8.73;;
2712;SDS011;1366;47.988;7.856;2022-10-19T08:39:03;9.60;;;8.47;;
2712;SDS011;1366;47.988;7.856;2022-10-19T08:49:33;10.43;;;8.67;;
2712;SDS011;1366;47.988;7.856;2022-10-19T08:52:02;9.13;;;8.30;;
2712;SDS011;1366;47.988;7.856;2022-10-19T08:54:31;9.10;;;8.20;;
2712;SDS011;1366;47.988;7.856;2022-10-19T09:02:16;10.67;;;8.90;;
2712;SDS011;1366;47.988;7.856;2022-10-19T09:04:46;9.13;;;8.23;;
2712;SDS011;1366;47.988;7.856;2022-10-19T09:07:21;11.80;;;8.40;;
2712;SDS011;1366;47.988;7.856;2022-10-19T09:09:53;9.83;;;8.83;;
2712;SDS011;1366;47.988;7.856;2022-10-19T09:12:23;9.70;;;8.13;;
2712;SDS011;1366;47.988;7.856;2022-10-19T09:14:58;10.37;;;7.70;;
2712;SDS011;1366;47.988;7.856;2022-10-19T09:17:25;11.00;;;9.33;;
2712;SDS011;1366;47.988;7.856;2022-10-19T09:19:52;9.63;;;8.27;;
2712;SDS011;1366;47.988;7.856;2022-10-19T09:22:19;9.53;;;8.53;;
2712;SDS011;1366;47.988;7.856;2022-10-19T09:24:57;9.43;;;8.30;;
2712;SDS011;1366;47.988;7.856;2022-10-19T09:27:28;8.03;;;7.23;;
2712;SDS011;1366;47.988;7.856;2022-10-19T09:29:56;9.67;;;8.77;;
2712;SDS011;1366;47.988;7.856;2022-10-19T09:32:26;9.07;;;8.17;;
2712;SDS011;1366;47.988;7.856;2022-10-19T09:34:59;9.13;;;8.23;;
2712;SDS011;1366;47.988;7.856;2022-10-19T09:37:26;10.87;;;9.77;;
2712;SDS011;1366;47.988;7.856;2022-10-19T09:39:53;9.27;;;8.30;;
2712;SDS011;1366;47.988;7.856;2022-10-19T09:42:23;11.73;;;8.70;;
2712;SDS011;1366;47.988;7.856;2022-10-19T09:44:53;8.30;;;7.50;;
2712;SDS011;1366;47.988;7.856;2022-10-19T09:49:49;8.93;;;8.03;;
2712;SDS011;1366;47.988;7.856;2022-10-19T09:55:00;8.37;;;7.57;;
2712;SDS011;1366;47.988;7.856;2022-10-19T09:57:26;8.70;;;7.90;;
2712;SDS011;1366;47.988;7.856;2022-10-19T09:59:52;8.40;;;7.57;;
2712;SDS011;1366;47.988;7.856;2022-10-19T10:02:20;9.50;;;8.47;;
2712;SDS011;1366;47.988;7.856;2022-10-19T10:05:33;8.93;;;8.03;;
2712;SDS011;1366;47.988;7.856;2022-10-19T10:07:35;8.93;;;8.03;;
2712;SDS011;1366;47.988;7.856;2022-10-19T10:10:07;9.23;;;8.40;;
2712;SDS011;1366;47.988;7.856;2022-10-19T10:12:34;11.27;;;8.20;;
2712;SDS011;1366;47.988;7.856;2022-10-19T10:15:01;10.10;;;8.60;;
2712;SDS011;1366;47.988;7.856;2022-10-19T10:17:28;10.67;;;9.23;;
2712;SDS011;1366;47.988;7.856;2022-10-19T10:22:32;8.77;;;7.87;;
2712;SDS011;1366;47.988;7.856;2022-10-19T10:24:58;10.30;;;8.33;;
2712;SDS011;1366;47.988;7.856;2022-10-19T10:27:29;8.97;;;7.97;;
2712;SDS011;1366;47.988;7.856;2022-10-19T10:29:55;9.27;;;8.37;;
2712;SDS011;1366;47.988;7.856;2022-10-19T10:32:21;9.60;;;8.47;;
2712;SDS011;1366;47.988;7.856;2022-10-19T10:35:01;10.70;;;9.57;;
2712;SDS011;1366;47.988;7.856;2022-10-19T10:39:59;10.73;;;8.87;;
2712;SDS011;1366;47.988;7.856;2022-10-19T10:42:47;10.87;;;9.77;;
2712;SDS011;1366;47.988;7.856;2022-10-19T10:45:17;9.80;;;8.83;;
2712;SDS011;1366;47.988;7.856;2022-10-19T10:47:43;13.87;;;10.07;;
2712;SDS011;1366;47.988;7.856;2022-10-19T10:50:19;13.30;;;10.20;;
2712;SDS011;1366;47.988;7.856;2022-10-19T10:52:59;13.10;;;10.60;;
2712;SDS011;1366;47.988;7.856;2022-10-19T10:55:26;14.63;;;9.00;;
2712;SDS011;1366;47.988;7.856;2022-10-19T10:57:53;9.93;;;8.90;;
2712;SDS011;1366;47.988;7.856;2022-10-19T11:00:21;12.43;;;10.10;;
2712;SDS011;1366;47.988;7.856;2022-10-19T11:02:55;11.43;;;10.23;;
2712;SDS011;1366;47.988;7.856;2022-10-19T11:15:52;12.20;;;9.70;;
2712;SDS011;1366;47.988;7.856;2022-10-19T11:18:33;11.90;;;10.63;;
2712;SDS011;1366;47.988;7.856;2022-10-19T11:21:05;12.17;;;10.73;;
2712;SDS011;1366;47.988;7.856;2022-10-19T11:26:02;11.80;;;9.17;;
2712;SDS011;1366;47.988;7.856;2022-10-19T11:28:38;10.10;;;9.10;;
2712;SDS011;1366;47.988;7.856;2022-10-19T11:31:26;13.13;;;10.17;;
2712;SDS011;1366;47.988;7.856;2022-10-19T11:41:48;10.77;;;9.63;;
2712;SDS011;1366;47.988;7.856;2022-10-19T11:44:24;11.70;;;10.60;;
2712;SDS011;1366;47.988;7.856;2022-10-19T11:51:58;11.97;;;10.73;;
2712;SDS011;1366;47.988;7.856;2022-10-19T11:54:35;11.63;;;10.27;;
2712;SDS011;1366;47.988;7.856;2022-10-19T11:57:18;13.13;;;11.80;;
2712;SDS011;1366;47.988;7.856;2022-10-19T12:05:03;12.13;;;10.30;;
2712;SDS011;1366;47.988;7.856;2022-10-19T12:10:01;13.10;;;11.33;;
2712;SDS011;1366;47.988;7.856;2022-10-19T12:12:38;12.57;;;11.27;;
2712;SDS011;1366;47.988;7.856;2022-10-19T12:17:50;13.70;;;12.20;;
2712;SDS011;1366;47.988;7.856;2022-10-19T12:22:44;11.80;;;10.60;;
2712;SDS011;1366;47.988;7.856;2022-10-19T12:25:11;15.60;;;12.77;;
2712;SDS011;1366;47.988;7.856;2022-10-19T12:27:38;12.60;;;11.40;;
2712;SDS011;1366;47.988;7.856;2022-10-19T12:30:06;13.50;;;11.80;;
2712;SDS011;1366;47.988;7.856;2022-10-19T12:32:57;13.57;;;11.47;;
2712;SDS011;1366;47.988;7.856;2022-10-19T12:47:36;17.10;;;11.93;;
2712;SDS011;1366;47.988;7.856;2022-10-19T12:50:02;16.10;;;11.60;;
2712;SDS011;1366;47.988;7.856;2022-10-19T12:52:36;17.30;;;12.00;;
2712;SDS011;1366;47.988;7.856;2022-10-19T12:57:35;16.80;;;12.17;;
2712;SDS011;1366;47.988;7.856;2022-10-19T13:00:05;12.80;;;11.50;;
2712;SDS011;1366;47.988;7.856;2022-10-19T13:02:32;16.60;;;13.20;;
2712;SDS011;1366;47.988;7.856;2022-10-19T13:04:59;16.10;;;12.67;;
2712;SDS011;1366;47.988;7.856;2022-10-19T13:07:26;13.23;;;10.90;;
2712;SDS011;1366;47.988;7.856;2022-10-19T13:09:58;15.30;;;12.97;;
2712;SDS011;1366;47.988;7.856;2022-10-19T13:12:25;14.43;;;12.93;;
2712;SDS011;1366;47.988;7.856;2022-10-19T13:14:52;14.57;;;12.53;;
2712;SDS011;1366;47.988;7.856;2022-10-19T13:22:49;17.07;;;13.33;;
2712;SDS011;1366;47.988;7.856;2022-10-19T13:27:45;17.27;;;14.00;;
2712;SDS011;1366;47.988;7.856;2022-10-19T13:32:56;17.80;;;13.37;;
2712;SDS011;1366;47.988;7.856;2022-10-19T13:35:29;17.10;;;14.63;;
2712;SDS011;1366;47.988;7.856;2022-10-19T13:40:55;16.90;;;14.00;;
2712;SDS011;1366;47.988;7.856;2022-10-19T13:43:24;18.27;;;14.10;;
2712;SDS011;1366;47.988;7.856;2022-10-19T13:53:37;17.80;;;14.10;;
2712;SDS011;1366;47.988;7.856;2022-10-19T14:11:16;16.37;;;14.43;;
2712;SDS011;1366;47.988;7.856;2022-10-19T14:13:43;15.57;;;13.60;;
2712;SDS011;1366;47.988;7.856;2022-10-19T14:16:16;16.10;;;13.83;;
2712;SDS011;1366;47.988;7.856;2022-10-19T14:18:42;15.90;;;13.20;;
2712;SDS011;1366;47.988;7.856;2022-10-19T14:21:08;17.20;;;14.13;;
2712;SDS011;1366;47.988;7.856;2022-10-19T14:23:35;16.07;;;13.77;;
2712;SDS011;1366;47.988;7.856;2022-10-19T14:26:10;18.70;;;16.20;;
2712;SDS011;1366;47.988;7.856;2022-10-19T14:28:37;20.37;;;15.80;;
2712;SDS011;1366;47.988;7.856;2022-10-19T14:31:05;16.43;;;14.40;;
2712;SDS011;1366;47.988;7.856;2022-10-19T14:33:33;18.57;;;14.47;;
2712;SDS011;1366;47.988;7.856;2022-10-19T14:35:59;15.93;;;14.23;;
2712;SDS011;1366;47.988;7.856;2022-10-19T14:40:54;16.57;;;14.83;;
2712;SDS011;1366;47.988;7.856;2022-10-19T14:48:28;17.90;;;15.47;;
2712;SDS011;1366;47.988;7.856;2022-10-19T14:50:55;17.00;;;14.10;;
2712;SDS011;1366;47.988;7.856;2022-10-19T14:55:47;16.83;;;14.80;;
2712;SDS011;1366;47.988;7.856;2022-10-19T14:58:17;15.03;;;13.43;;
2712;SDS011;1366;47.988;7.856;2022-10-19T15:00:44;19.07;;;14.33;;
2712;SDS011;1366;47.988;7.856;2022-10-19T15:03:11;15.43;;;12.17;;
2712;SDS011;1366;47.988;7.856;2022-10-19T15:05:46;14.17;;;12.70;;
2712;SDS011;1366;47.988;7.856;2022-10-19T15:11:18;16.33;;;14.60;;
2712;SDS011;1366;47.988;7.856;2022-10-19T15:13:45;17.87;;;14.60;;
2712;SDS011;1366;47.988;7.856;2022-10-19T15:19:01;14.80;;;13.23;;
2712;SDS011;1366;47.988;7.856;2022-10-19T15:21:28;17.37;;;14.10;;
2712;SDS011;1366;47.988;7.856;2022-10-19T15:23:54;15.87;;;14.17;;
2712;SDS011;1366;47.988;7.856;2022-10-19T15:26:30;17.43;;;13.40;;
2712;SDS011;1366;47.988;7.856;2022-10-19T15:29:09;15.93;;;13.67;;
2712;SDS011;1366;47.988;7.856;2022-10-19T15:31:36;14.53;;;12.40;;
2712;SDS011;1366;47.988;7.856;2022-10-19T15:34:03;18.23;;;13.77;;
2712;SDS011;1366;47.988;7.856;2022-10-19T15:36:29;16.37;;;13.60;;
2712;SDS011;1366;47.988;7.856;2022-10-19T15:41:26;17.37;;;14.97;;
2712;SDS011;1366;47.988;7.856;2022-10-19T15:43:59;14.10;;;12.60;;
2712;SDS011;1366;47.988;7.856;2022-10-19T15:46:35;17.37;;;14.03;;
2712;SDS011;1366;47.988;7.856;2022-10-19T15:52:17;15.23;;;13.63;;
2712;SDS011;1366;47.988;7.856;2022-10-19T15:54:47;21.67;;;15.53;;
2712;SDS011;1366;47.988;7.856;2022-10-19T15:57:20;15.90;;;14.20;;
2712;SDS011;1366;47.988;7.856;2022-10-19T15:59:47;16.97;;;13.60;;
2712;SDS011;1366;47.988;7.856;2022-10-19T16:02:13;16.37;;;14.37;;
2712;SDS011;1366;47.988;7.856;2022-10-19T16:04:39;15.33;;;13.10;;
2712;SDS011;1366;47.988;7.856;2022-10-19T16:07:05;15.80;;;13.80;;
2712;SDS011;1366;47.988;7.856;2022-10-19T16:09:31;14.63;;;13.13;;
2712;SDS011;1366;47.988;7.856;2022-10-19T16:11:58;15.37;;;13.80;;
2712;SDS011;1366;47.988;7.856;2022-10-19T16:14:24;15.87;;;13.80;;
2712;SDS011;1366;47.988;7.856;2022-10-19T16:16:52;14.00;;;12.50;;
2712;SDS011;1366;47.988;7.856;2022-10-19T16:19:18;17.60;;;13.00;;
2712;SDS011;1366;47.988;7.856;2022-10-19T16:21:44;14.17;;;12.67;;
2712;SDS011;1366;47.988;7.856;2022-10-19T16:24:10;14.47;;;12.13;;
2712;SDS011;1366;47.988;7.856;2022-10-19T16:26:36;14.97;;;12.60;;
2712;SDS011;1366;47.988;7.856;2022-10-19T16:29:02;16.40;;;13.90;;
2712;SDS011;1366;47.988;7.856;2022-10-19T16:31:29;16.80;;;12.63;;
2712;SDS011;1366;47.988;7.856;2022-10-19T16:33:55;16.47;;;14.37;;
2712;SDS011;1366;47.988;7.856;2022-10-19T16:36:21;15.60;;;14.00;;
2712;SDS011;1366;47.988;7.856;2022-10-19T16:38:47;15.03;;;12.37;;
2712;SDS011;1366;47.988;7.856;2022-10-19T16:41:13;13.83;;;12.33;;
2712;SDS011;1366;47.988;7.856;2022-10-19T16:43:40;13.73;;;12.30;;
2712;SDS011;1366;47.988;7.856;2022-10-19T16:46:06;13.80;;;12.30;;
2712;SDS011;1366;47.988;7.856;2022-10-19T16:48:32;13.77;;;12.30;;
2712;SDS011;1366;47.988;7.856;2022-10-19T16:53:34;14.10;;;10.90;;
2712;SDS011;1366;47.988;7.856;2022-10-19T16:58:30;12.27;;;10.97;;
2712;SDS011;1366;47.988;7.856;2022-10-19T17:00:56;13.20;;;10.23;;
2712;SDS011;1366;47.988;7.856;2022-10-19T17:03:25;12.43;;;10.57;;
2712;SDS011;1366;47.988;7.856;2022-10-19T17:05:52;12.10;;;10.90;;
2712;SDS011;1366;47.988;7.856;2022-10-19T17:08:18;12.97;;;11.10;;
2712;SDS011;1366;47.988;7.856;2022-10-19T17:10:44;13.83;;;11.90;;
2712;SDS011;1366;47.988;7.856;2022-10-19T17:13:11;11.53;;;10.40;;
2712;SDS011;1366;47.988;7.856;2022-10-19T17:15:37;12.50;;;11.30;;
2712;SDS011;1366;47.988;7.856;2022-10-19T17:18:03;12.70;;;11.40;;
2712;SDS011;1366;47.988;7.856;2022-10-19T17:20:31;13.93;;;12.47;;
2712;SDS011;1366;47.988;7.856;2022-10-19T17:22:57;15.13;;;13.50;;
2712;SDS011;1366;47.988;7.856;2022-10-19T17:25:23;13.80;;;11.33;;
2712;SDS011;1366;47.988;7.856;2022-10-19T17:27:50;11.57;;;10.33;;
2712;SDS011;1366;47.988;7.856;2022-10-19T17:30:16;11.50;;;10.30;;
2712;SDS011;1366;47.988;7.856;2022-10-19T17:32:42;16.40;;;13.80;;
2712;SDS011;1366;47.988;7.856;2022-10-19T17:35:08;12.03;;;10.83;;
2712;SDS011;1366;47.988;7.856;2022-10-19T17:37:34;13.67;;;12.17;;
2712;SDS011;1366;47.988;7.856;2022-10-19T17:40:00;12.27;;;10.83;;
2712;SDS011;1366;47.988;7.856;2022-10-19T17:42:26;9.93;;;9.07;;
2712;SDS011;1366;47.988;7.856;2022-10-19T17:44:52;12.37;;;11.17;;
2712;SDS011;1366;47.988;7.856;2022-10-19T17:47:18;12.37;;;11.00;;
2712;SDS011;1366;47.988;7.856;2022-10-19T17:49:44;14.60;;;11.90;;
2712;SDS011;1366;47.988;7.856;2022-10-19T17:52:11;11.53;;;10.43;;
2712;SDS011;1366;47.988;7.856;2022-10-19T17:54:37;11.90;;;10.80;;
2712;SDS011;1366;47.988;7.856;2022-10-19T17:57:03;10.80;;;9.80;;
2712;SDS011;1366;47.988;7.856;2022-10-19T17:59:29;9.60;;;8.67;;
2712;SDS011;1366;47.988;7.856;2022-10-19T18:01:55;9.47;;;7.90;;
2712;SDS011;1366;47.988;7.856;2022-10-19T18:04:21;9.37;;;8.40;;
2712;SDS011;1366;47.988;7.856;2022-10-19T18:06:47;9.23;;;8.43;;
2712;SDS011;1366;47.988;7.856;2022-10-19T18:09:13;9.73;;;8.70;;
2712;SDS011;1366;47.988;7.856;2022-10-19T18:11:40;9.20;;;8.40;;
2712;SDS011;1366;47.988;7.856;2022-10-19T18:14:07;9.70;;;8.80;;
2712;SDS011;1366;47.988;7.856;2022-10-19T18:16:38;9.80;;;8.90;;
2712;SDS011;1366;47.988;7.856;2022-10-19T18:19:04;10.23;;;8.33;;
2712;SDS011;1366;47.988;7.856;2022-10-19T18:21:32;10.30;;;8.80;;
2712;SDS011;1366;47.988;7.856;2022-10-19T18:23:59;10.50;;;9.40;;
2712;SDS011;1366;47.988;7.856;2022-10-19T18:26:27;9.50;;;8.50;;
2712;SDS011;1366;47.988;7.856;2022-10-19T18:28:54;8.73;;;7.90;;
2712;SDS011;1366;47.988;7.856;2022-10-19T18:31:22;9.20;;;8.30;;
2712;SDS011;1366;47.988;7.856;2022-10-19T18:33:53;7.97;;;7.27;;
2712;SDS011;1366;47.988;7.856;2022-10-19T18:36:20;7.57;;;6.97;;
2712;SDS011;1366;47.988;7.856;2022-10-19T18:38:49;7.03;;;6.43;;
2712;SDS011;1366;47.988;7.856;2022-10-19T18:41:15;8.43;;;7.73;;
2712;SDS011;1366;47.988;7.856;2022-10-19T18:43:42;7.70;;;7.10;;
2712;SDS011;1366;47.988;7.856;2022-10-19T18:46:08;8.67;;;7.87;;
2712;SDS011;1366;47.988;7.856;2022-10-19T18:48:37;10.53;;;9.53;;
2712;SDS011;1366;47.988;7.856;2022-10-19T18:51:04;11.90;;;10.67;;
2712;SDS011;1366;47.988;7.856;2022-10-19T18:53:31;11.60;;;10.50;;
2712;SDS011;1366;47.988;7.856;2022-10-19T18:56:00;10.70;;;9.70;;
2712;SDS011;1366;47.988;7.856;2022-10-19T18:58:27;10.10;;;9.17;;
2712;SDS011;1366;47.988;7.856;2022-10-19T19:03:28;10.13;;;9.10;;
2712;SDS011;1366;47.988;7.856;2022-10-19T19:05:57;11.73;;;10.63;;
2712;SDS011;1366;47.988;7.856;2022-10-19T19:08:23;12.47;;;11.20;;
2712;SDS011;1366;47.988;7.856;2022-10-19T19:10:49;12.70;;;11.43;;
2712;SDS011;1366;47.988;7.856;2022-10-19T19:13:15;11.87;;;10.67;;
2712;SDS011;1366;47.988;7.856;2022-10-19T19:15:41;13.47;;;10.73;;
2712;SDS011;1366;47.988;7.856;2022-10-19T19:18:07;12.13;;;10.90;;
2712;SDS011;1366;47.988;7.856;2022-10-19T19:20:33;12.13;;;10.90;;
2712;SDS011;1366;47.988;7.856;2022-10-19T19:23:00;12.57;;;11.30;;
2712;SDS011;1366;47.988;7.856;2022-10-19T19:25:26;11.63;;;9.70;;
2712;SDS011;1366;47.988;7.856;2022-10-19T19:27:52;11.40;;;9.50;;
2712;SDS011;1366;47.988;7.856;2022-10-19T19:30:18;10.90;;;9.90;;
2712;SDS011;1366;47.988;7.856;2022-10-19T19:32:44;11.83;;;10.63;;
2712;SDS011;1366;47.988;7.856;2022-10-19T19:35:10;11.67;;;10.50;;
2712;SDS011;1366;47.988;7.856;2022-10-19T19:37:36;10.20;;;9.20;;
2712;SDS011;1366;47.988;7.856;2022-10-19T19:40:02;11.67;;;9.63;;
2712;SDS011;1366;47.988;7.856;2022-10-19T19:42:28;10.50;;;9.50;;
2712;SDS011;1366;47.988;7.856;2022-10-19T19:44:54;9.23;;;8.33;;
2712;SDS011;1366;47.988;7.856;2022-10-19T19:47:20;12.20;;;10.50;;
2712;SDS011;1366;47.988;7.856;2022-10-19T19:49:46;12.50;;;11.20;;
2712;SDS011;1366;47.988;7.856;2022-10-19T19:52:12;12.70;;;11.30;;
2712;SDS011;1366;47.988;7.856;2022-10-19T19:54:39;14.53;;;12.43;;
2712;SDS011;1366;47.988;7.856;2022-10-19T19:57:05;16.90;;;12.47;;
2712;SDS011;1366;47.988;7.856;2022-10-19T19:59:31;13.83;;;12.27;;
2712;SDS011;1366;47.988;7.856;2022-10-19T20:01:57;13.43;;;12.07;;
2712;SDS011;1366;47.988;7.856;2022-10-19T20:04:25;13.70;;;12.30;;
2712;SDS011;1366;47.988;7.856;2022-10-19T20:06:51;14.23;;;12.30;;
2712;SDS011;1366;47.988;7.856;2022-10-19T20:09:17;12.10;;;10.83;;
2712;SDS011;1366;47.988;7.856;2022-10-19T20:11:43;13.50;;;12.10;;
2712;SDS011;1366;47.988;7.856;2022-10-19T20:14:10;14.00;;;12.20;;
2712;SDS011;1366;47.988;7.856;2022-10-19T20:16:37;13.10;;;11.73;;
2712;SDS011;1366;47.988;7.856;2022-10-19T20:19:07;13.07;;;11.33;;
2712;SDS011;1366;47.988;7.856;2022-10-19T20:21:34;14.60;;;12.20;;
2712;SDS011;1366;47.988;7.856;2022-10-19T20:24:00;12.63;;;11.33;;
2712;SDS011;1366;47.988;7.856;2022-10-19T20:26:26;12.57;;;10.90;;
2712;SDS011;1366;47.988;7.856;2022-10-19T20:28:53;14.77;;;12.50;;
2712;SDS011;1366;47.988;7.856;2022-10-19T20:31:19;14.63;;;12.00;;
2712;SDS011;1366;47.988;7.856;2022-10-19T20:33:45;17.13;;;13.40;;
2712;SDS011;1366;47.988;7.856;2022-10-19T20:38:43;16.40;;;13.00;;
2712;SDS011;1366;47.988;7.856;2022-10-19T20:41:10;13.77;;;11.37;;
2712;SDS011;1366;47.988;7.856;2022-10-19T20:43:36;12.77;;;11.47;;
2712;SDS011;1366;47.988;7.856;2022-10-19T20:48:28;15.73;;;12.57;;
2712;SDS011;1366;47.988;7.856;2022-10-19T20:50:54;12.60;;;11.10;;
2712;SDS011;1366;47.988;7.856;2022-10-19T20:53:20;13.70;;;12.10;;
2712;SDS011;1366;47.988;7.856;2022-10-19T20:55:46;17.80;;;13.60;;
2712;SDS011;1366;47.988;7.856;2022-10-19T20:58:12;15.97;;;13.60;;
2712;SDS011;1366;47.988;7.856;2022-10-19T21:00:39;14.30;;;12.70;;
2712;SDS011;1366;47.988;7.856;2022-10-19T21:03:05;15.07;;;12.87;;
2712;SDS011;1366;47.988;7.856;2022-10-19T21:05:31;17.47;;;13.13;;
2712;SDS011;1366;47.988;7.856;2022-10-19T21:07:57;18.53;;;13.43;;
2712;SDS011;1366;47.988;7.856;2022-10-19T21:10:23;16.80;;;12.67;;
2712;SDS011;1366;47.988;7.856;2022-10-19T21:12:49;13.63;;;11.60;;
2712;SDS011;1366;47.988;7.856;2022-10-19T21:15:15;16.17;;;13.37;;
2712;SDS011;1366;47.988;7.856;2022-10-19T21:17:41;14.43;;;12.17;;
2712;SDS011;1366;47.988;7.856;2022-10-19T21:20:07;17.27;;;13.53;;
2712;SDS011;1366;47.988;7.856;2022-10-19T21:22:33;14.63;;;13.07;;
2712;SDS011;1366;47.988;7.856;2022-10-19T21:25:03;16.70;;;13.77;;
2712;SDS011;1366;47.988;7.856;2022-10-19T21:27:29;16.27;;;13.30;;
2712;SDS011;1366;47.988;7.856;2022-10-19T21:29:55;15.00;;;12.73;;